Time;durP1;ratioP1;P1;durP2;ratioP2;P2;SDS_P1;SDS_P2;PMS_P1;PMS_P2;Temp;Humidity;BMP_temperature;BMP_pressure;BME280_temperature;BME280_humidity;BME280_pressure;Samples;Min_cycle;Max_cycle;Signal;HPM_P1;HPM_P2
2022/09/18 00:02:14;;;;;;;;;;;18.30;70.60;;;;;;5052717;28;20234;-71
2022/09/18 00:04:41;;;;;;;;;;;18.20;69.40;;;;;;5051610;28;19912;-71
2022/09/18 00:07:08;;;;;;;;;;;18.30;69.90;;;;;;5051773;28;19962;-77
2022/09/18 00:09:34;;;;;;;;;;;18.30;69.20;;;;;;5052156;28;19913;-77
2022/09/18 00:12:01;;;;;;;;;;;18.30;69.90;;;;;;5052279;28;19912;-75
2022/09/18 00:14:28;;;;;;;;;;;18.40;70.10;;;;;;5052200;28;19963;-75
2022/09/18 00:16:54;;;;;;;;;;;18.40;70.30;;;;;;5051613;28;19924;-72
2022/09/18 00:19:21;;;;;;;;;;;18.50;70.00;;;;;;5044039;28;19948;-77
2022/09/18 00:21:49;;;;;;;;;;;18.60;68.80;;;;;;5032199;28;19921;-72
2022/09/18 00:24:19;;;;;;;;;;;18.60;69.20;;;;;;5045205;28;19948;-71
2022/09/18 00:26:46;;;;;;;;;;;18.70;69.60;;;;;;5051250;28;19913;-71
2022/09/18 00:29:14;;;;;;;;;;;18.70;69.00;;;;;;5051849;28;19909;-71
2022/09/18 00:31:41;;;;;;;;;;;18.80;68.60;;;;;;5047437;28;20003;-71
2022/09/18 00:34:10;;;;;;;;;;;18.80;68.40;;;;;;5043127;28;19909;-72
2022/09/18 00:36:37;;;;;;;;;;;18.80;69.20;;;;;;5051276;28;20285;-76
2022/09/18 00:39:04;;;;;;;;;;;18.90;69.60;;;;;;5042850;28;19916;-72
2022/09/18 00:41:33;;;;;;;;;;;18.90;69.00;;;;;;5049559;28;19909;-77
2022/09/18 00:44:17;;;;;;;;;;;19.00;68.40;;;;;;5042437;28;19913;-72
2022/09/18 00:46:44;;;;;;;;;;;19.10;69.30;;;;;;5048237;28;19948;-76
2022/09/18 00:49:16;;;;;;;;;;;19.10;68.80;;;;;;5047238;28;19917;-72
2022/09/18 00:51:44;;;;;;;;;;;19.20;69.10;;;;;;5049838;28;20370;-72
2022/09/18 00:54:23;;;;;;;;;;;19.40;68.50;;;;;;5051511;28;19909;-72
2022/09/18 00:56:50;;;;;;;;;;;19.50;68.10;;;;;;5049751;28;19948;-71
2022/09/18 00:59:25;;;;;;;;;;;19.50;67.90;;;;;;5049966;28;19957;-71
2022/09/18 01:01:52;;;;;;;;;;;19.60;67.80;;;;;;5050598;28;19940;-72
2022/09/18 01:04:19;;;;;;;;;;;19.70;67.70;;;;;;5050350;28;19959;-70
2022/09/18 01:06:48;;;;;;;;;;;19.80;68.10;;;;;;5051733;28;19970;-73
2022/09/18 01:09:21;;;;;;;;;;;19.80;68.00;;;;;;5051841;28;19978;-73
2022/09/18 01:11:48;;;;;;;;;;;19.90;68.40;;;;;;5051880;28;19909;-75
2022/09/18 01:14:30;;;;;;;;;;;20.10;67.80;;;;;;5051028;28;20463;-72
2022/09/18 01:17:02;;;;;;;;;;;20.20;67.40;;;;;;5050876;28;19921;-75
2022/09/18 01:19:28;;;;;;;;;;;20.30;66.40;;;;;;5048035;28;19916;-73
2022/09/18 01:22:14;;;;;;;;;;;20.30;66.20;;;;;;5049991;28;19936;-76
2022/09/18 01:24:59;;;;;;;;;;;20.50;66.10;;;;;;5050224;28;20332;-70
2022/09/18 01:27:40;;;;;;;;;;;20.60;64.70;;;;;;5050553;28;19913;-73
2022/09/18 01:30:08;;;;;;;;;;;20.60;64.60;;;;;;5031672;28;20285;-72
2022/09/18 01:32:38;;;;;;;;;;;20.60;65.50;;;;;;5050477;28;19971;-73
2022/09/18 01:35:24;;;;;;;;;;;20.80;65.10;;;;;;5051657;28;20379;-74
2022/09/18 01:37:51;;;;;;;;;;;20.90;64.70;;;;;;5051800;28;19931;-72
2022/09/18 01:40:22;;;;;;;;;;;21.10;63.40;;;;;;5051952;28;20522;-73
2022/09/18 01:42:49;;;;;;;;;;;21.10;63.60;;;;;;5049482;28;19959;-75
2022/09/18 01:45:18;;;;;;;;;;;21.30;63.70;;;;;;5053238;28;19919;-73
2022/09/18 01:47:47;;;;;;;;;;;21.40;63.50;;;;;;5054269;28;20508;-74
2022/09/18 01:50:14;;;;;;;;;;;21.50;63.90;;;;;;5055033;28;19917;-76
2022/09/18 01:52:48;;;;;;;;;;;21.60;63.30;;;;;;5054482;28;19913;-74
2022/09/18 01:55:17;;;;;;;;;;;21.80;62.90;;;;;;5055325;28;19909;-75
2022/09/18 01:57:51;;;;;;;;;;;21.80;62.80;;;;;;5055673;28;19983;-73
2022/09/18 02:00:18;;;;;;;;;;;22.00;62.20;;;;;;5055282;28;19913;-77
2022/09/18 02:02:44;;;;;;;;;;;22.10;61.90;;;;;;5055882;28;20380;-78
2022/09/18 02:05:14;;;;;;;;;;;22.30;61.50;;;;;;5055716;28;19951;-78
2022/09/18 02:07:50;;;;;;;;;;;22.40;62.20;;;;;;5055692;28;19909;-73
2022/09/18 02:10:19;;;;;;;;;;;22.50;61.90;;;;;;5055642;28;20384;-73
2022/09/18 02:12:47;;;;;;;;;;;22.70;63.00;;;;;;5054091;28;19956;-73
2022/09/18 02:15:14;;;;;;;;;;;22.80;61.50;;;;;;5055204;28;19995;-74
2022/09/18 02:18:07;;;;;;;;;;;23.00;60.70;;;;;;5055307;28;19948;-74
2022/09/18 02:20:34;;;;;;;;;;;23.10;59.70;;;;;;5051615;28;19962;-73
2022/09/18 02:23:03;;;;;;;;;;;23.00;60.30;;;;;;5054866;28;19920;-74
2022/09/18 02:25:32;;;;;;;;;;;23.00;59.50;;;;;;5055052;28;19908;-72
2022/09/18 02:27:59;;;;;;;;;;;23.00;60.40;;;;;;5054967;28;19916;-75
2022/09/18 02:30:27;;;;;;;;;;;23.10;61.20;;;;;;5054878;28;19909;-74
2022/09/18 02:32:55;;;;;;;;;;;23.20;59.80;;;;;;5055207;28;19923;-75
2022/09/18 02:35:24;;;;;;;;;;;23.50;60.10;;;;;;5034744;28;19913;-73
2022/09/18 02:37:51;;;;;;;;;;;23.70;59.70;;;;;;5044584;28;19912;-72
2022/09/18 02:40:18;;;;;;;;;;;24.00;59.50;;;;;;5054532;28;20014;-73
2022/09/18 02:43:02;;;;;;;;;;;24.30;59.20;;;;;;5054603;28;19913;-73
2022/09/18 02:45:29;;;;;;;;;;;24.90;59.80;;;;;;5054708;28;20423;-74
2022/09/18 02:48:12;;;;;;;;;;;25.50;57.50;;;;;;5054889;28;20003;-77
2022/09/18 02:50:46;;;;;;;;;;;25.90;57.00;;;;;;5054586;28;19916;-74
2022/09/18 02:53:13;;;;;;;;;;;26.40;55.50;;;;;;5054742;28;19931;-73
2022/09/18 02:55:42;;;;;;;;;;;27.00;56.50;;;;;;5053316;28;19919;-80
2022/09/18 02:58:12;;;;;;;;;;;27.60;55.90;;;;;;5036237;28;20353;-73
2022/09/18 03:00:43;;;;;;;;;;;28.00;53.20;;;;;;5054470;28;20431;-74
2022/09/18 03:03:14;;;;;;;;;;;28.20;53.50;;;;;;5054528;28;19909;-75
2022/09/18 03:05:40;;;;;;;;;;;28.20;52.70;;;;;;5054425;28;20400;-74
2022/09/18 03:08:07;;;;;;;;;;;28.90;52.90;;;;;;5053741;28;19913;-74
2022/09/18 03:10:34;;;;;;;;;;;29.50;52.20;;;;;;5054056;28;19913;-74
2022/09/18 03:13:00;;;;;;;;;;;30.00;50.80;;;;;;5054419;28;19995;-74
2022/09/18 03:15:27;;;;;;;;;;;30.30;50.00;;;;;;5054353;28;20007;-75
2022/09/18 03:17:54;;;;;;;;;;;30.50;48.20;;;;;;5054131;28;19909;-74
2022/09/18 03:20:20;;;;;;;;;;;30.00;48.00;;;;;;5053689;28;19960;-73
2022/09/18 03:22:47;;;;;;;;;;;29.50;48.60;;;;;;5053979;28;20417;-78
2022/09/18 03:25:14;;;;;;;;;;;29.60;48.60;;;;;;5054037;28;19909;-76
2022/09/18 03:27:41;;;;;;;;;;;29.60;48.60;;;;;;5053927;28;20328;-75
2022/09/18 03:30:08;;;;;;;;;;;30.00;48.80;;;;;;5053676;28;19909;-74
2022/09/18 03:32:35;;;;;;;;;;;30.20;47.60;;;;;;5036140;28;19916;-76
2022/09/18 03:35:01;;;;;;;;;;;30.20;47.70;;;;;;5053427;28;19920;-78
2022/09/18 03:37:28;;;;;;;;;;;30.10;47.30;;;;;;5052825;28;19932;-74
2022/09/18 03:39:55;;;;;;;;;;;30.40;47.50;;;;;;5053718;28;20289;-73
2022/09/18 03:42:22;;;;;;;;;;;30.30;47.00;;;;;;5053511;28;19917;-73
2022/09/18 03:44:48;;;;;;;;;;;30.50;47.00;;;;;;5053458;28;19909;-78
2022/09/18 03:47:15;;;;;;;;;;;30.60;46.80;;;;;;5053341;28;19925;-73
2022/09/18 03:49:41;;;;;;;;;;;31.00;47.00;;;;;;5053502;28;19967;-76
2022/09/18 03:52:08;;;;;;;;;;;31.20;46.70;;;;;;5053714;28;19909;-76
2022/09/18 03:54:35;;;;;;;;;;;30.90;46.10;;;;;;5053674;28;19968;-78
2022/09/18 03:57:01;;;;;;;;;;;31.00;45.60;;;;;;5052483;28;19921;-74
2022/09/18 03:59:28;;;;;;;;;;;30.90;45.60;;;;;;5052776;28;19913;-73
2022/09/18 04:01:56;;;;;;;;;;;30.50;45.60;;;;;;5052962;28;19913;-79
2022/09/18 04:04:22;;;;;;;;;;;30.30;47.00;;;;;;5053210;28;19955;-79
2022/09/18 04:06:49;;;;;;;;;;;30.10;46.30;;;;;;5052900;28;19913;-77
2022/09/18 04:09:16;;;;;;;;;;;30.20;47.40;;;;;;5052700;28;19944;-72
2022/09/18 04:11:43;;;;;;;;;;;30.00;46.40;;;;;;5052961;28;19995;-76
2022/09/18 04:14:10;;;;;;;;;;;30.00;46.20;;;;;;5053150;28;19947;-76
2022/09/18 04:16:37;;;;;;;;;;;30.00;46.00;;;;;;5052987;28;19921;-73
2022/09/18 04:19:03;;;;;;;;;;;30.20;46.00;;;;;;5052643;28;19957;-80
2022/09/18 04:21:33;;;;;;;;;;;30.40;45.60;;;;;;5052728;28;20296;-75
2022/09/18 04:23:59;;;;;;;;;;;30.40;46.20;;;;;;5052577;28;19962;-79
2022/09/18 04:26:29;;;;;;;;;;;30.50;45.60;;;;;;5052578;28;20007;-76
2022/09/18 04:28:56;;;;;;;;;;;30.40;45.20;;;;;;5052958;28;19959;-79
2022/09/18 04:31:22;;;;;;;;;;;30.20;45.60;;;;;;5053066;28;19955;-79
2022/09/18 04:33:49;;;;;;;;;;;29.90;46.40;;;;;;5052957;28;19959;-77
2022/09/18 04:36:16;;;;;;;;;;;29.90;46.20;;;;;;5052781;28;19982;-78
2022/09/18 04:38:42;;;;;;;;;;;30.40;48.10;;;;;;5052754;28;19913;-73
2022/09/18 04:41:09;;;;;;;;;;;30.60;45.80;;;;;;5052833;28;20007;-74
2022/09/18 04:43:35;;;;;;;;;;;30.60;46.10;;;;;;5052260;28;20322;-73
2022/09/18 04:46:02;;;;;;;;;;;30.50;46.20;;;;;;5052689;28;20029;-72
2022/09/18 04:48:29;;;;;;;;;;;30.50;45.90;;;;;;5052471;28;19916;-72
2022/09/18 04:50:55;;;;;;;;;;;30.40;45.60;;;;;;5052289;28;20376;-73
2022/09/18 04:53:22;;;;;;;;;;;30.40;45.70;;;;;;5052311;28;19905;-73
2022/09/18 04:55:49;;;;;;;;;;;30.70;45.60;;;;;;5051272;28;19921;-77
2022/09/18 04:58:16;;;;;;;;;;;30.60;46.60;;;;;;5050575;28;19912;-77
2022/09/18 05:00:43;;;;;;;;;;;30.70;44.90;;;;;;5052051;28;20369;-74
2022/09/18 05:03:09;;;;;;;;;;;30.80;45.20;;;;;;5052376;28;19909;-77
2022/09/18 05:05:36;;;;;;;;;;;31.00;45.60;;;;;;5052173;28;19916;-73
2022/09/18 05:08:03;;;;;;;;;;;30.90;45.20;;;;;;5052052;28;19923;-73
2022/09/18 05:10:30;;;;;;;;;;;30.90;45.70;;;;;;5051956;28;20290;-72
2022/09/18 05:12:56;;;;;;;;;;;31.40;45.20;;;;;;5052036;28;20003;-75
2022/09/18 05:15:23;;;;;;;;;;;32.00;44.30;;;;;;5052205;28;19912;-74
2022/09/18 05:17:59;;;;;;;;;;;31.90;44.70;;;;;;5050589;28;19963;-73
2022/09/18 05:20:26;;;;;;;;;;;31.90;42.60;;;;;;5051913;28;19921;-73
2022/09/18 05:22:53;;;;;;;;;;;31.50;43.40;;;;;;5051664;28;20388;-76
2022/09/18 05:25:19;;;;;;;;;;;31.70;43.70;;;;;;5051948;28;19939;-77
2022/09/18 05:27:53;;;;;;;;;;;31.60;44.40;;;;;;5052125;28;19995;-78
2022/09/18 05:30:19;;;;;;;;;;;31.00;44.80;;;;;;5051639;28;19920;-73
2022/09/18 05:32:56;;;;;;;;;;;30.90;44.80;;;;;;5051743;28;19912;-76
2022/09/18 05:35:23;;;;;;;;;;;30.90;46.30;;;;;;5052039;28;19909;-74
2022/09/18 05:37:51;;;;;;;;;;;30.80;44.50;;;;;;5052267;28;20315;-73
2022/09/18 05:40:24;;;;;;;;;;;30.70;45.00;;;;;;5051885;28;19909;-73
2022/09/18 05:42:54;;;;;;;;;;;31.10;45.10;;;;;;5051563;28;19943;-72
2022/09/18 05:45:21;;;;;;;;;;;31.20;43.80;;;;;;5051752;28;20281;-76
2022/09/18 05:47:55;;;;;;;;;;;30.80;43.70;;;;;;5051819;28;19912;-73
2022/09/18 05:50:22;;;;;;;;;;;31.00;44.30;;;;;;5051898;28;19935;-73
2022/09/18 05:53:01;;;;;;;;;;;30.90;44.00;;;;;;5051844;28;19909;-74
2022/09/18 05:55:28;;;;;;;;;;;31.00;43.80;;;;;;5050679;28;19919;-75
2022/09/18 05:57:56;;;;;;;;;;;30.20;43.90;;;;;;5050613;28;19977;-73
2022/09/18 06:00:23;;;;;;;;;;;29.60;44.50;;;;;;5051121;28;19962;-73
2022/09/18 06:02:57;;;;;;;;;;;29.40;45.50;;;;;;5051177;28;20358;-74
2022/09/18 06:05:24;;;;;;;;;;;29.30;46.10;;;;;;5049916;28;19963;-76
2022/09/18 06:07:51;;;;;;;;;;;29.40;45.80;;;;;;5051660;28;19923;-73
2022/09/18 06:10:18;;;;;;;;;;;29.40;45.10;;;;;;5051572;28;19913;-76
2022/09/18 06:12:45;;;;;;;;;;;29.30;45.70;;;;;;5051958;28;19964;-78
2022/09/18 06:15:12;;;;;;;;;;;29.20;45.70;;;;;;5051355;28;19920;-77
2022/09/18 06:17:39;;;;;;;;;;;29.50;47.20;;;;;;5051381;28;19927;-77
2022/09/18 06:20:07;;;;;;;;;;;30.00;46.40;;;;;;5051481;28;19917;-77
2022/09/18 06:22:34;;;;;;;;;;;30.20;45.30;;;;;;5051597;28;19952;-76
2022/09/18 06:25:01;;;;;;;;;;;30.50;44.50;;;;;;5051335;28;20026;-78
2022/09/18 06:27:28;;;;;;;;;;;30.40;45.20;;;;;;5052012;28;20008;-79
2022/09/18 06:29:55;;;;;;;;;;;30.50;44.50;;;;;;5054510;28;19908;-77
2022/09/18 06:32:21;;;;;;;;;;;30.00;44.30;;;;;;5055368;28;20384;-74
2022/09/18 06:34:48;;;;;;;;;;;29.80;44.60;;;;;;5055245;28;19909;-73
2022/09/18 06:37:15;;;;;;;;;;;29.80;44.90;;;;;;5055016;28;19968;-73
2022/09/18 06:39:42;;;;;;;;;;;29.70;44.70;;;;;;5054485;28;19912;-77
2022/09/18 06:42:09;;;;;;;;;;;29.00;45.60;;;;;;5054329;28;19951;-73
2022/09/18 06:44:36;;;;;;;;;;;28.00;46.20;;;;;;5054289;28;19978;-74
2022/09/18 06:47:04;;;;;;;;;;;27.30;47.50;;;;;;5054189;28;19938;-73
2022/09/18 06:49:31;;;;;;;;;;;26.80;48.60;;;;;;5054844;28;20491;-74
2022/09/18 06:51:58;;;;;;;;;;;26.40;48.60;;;;;;5054447;28;19913;-77
2022/09/18 06:54:24;;;;;;;;;;;25.90;49.70;;;;;;5037003;28;19927;-75
2022/09/18 06:56:51;;;;;;;;;;;25.30;49.80;;;;;;5054466;28;19952;-74
2022/09/18 06:59:18;;;;;;;;;;;24.80;50.80;;;;;;5054123;28;19916;-79
2022/09/18 07:01:47;;;;;;;;;;;24.40;51.60;;;;;;5054660;28;20365;-76
2022/09/18 07:04:14;;;;;;;;;;;24.00;52.60;;;;;;5054116;28;19909;-82
2022/09/18 07:06:47;;;;;;;;;;;23.80;53.20;;;;;;5054713;28;19913;-78
2022/09/18 07:09:13;;;;;;;;;;;23.70;52.80;;;;;;5054478;28;19909;-75
2022/09/18 07:11:40;;;;;;;;;;;23.50;52.80;;;;;;5054511;28;19915;-73
2022/09/18 07:14:07;;;;;;;;;;;23.60;52.50;;;;;;5053846;28;20011;-78
2022/09/18 07:16:34;;;;;;;;;;;23.70;51.90;;;;;;5036314;28;19919;-72
2022/09/18 07:19:01;;;;;;;;;;;23.60;51.30;;;;;;5054311;28;19944;-74
2022/09/18 07:21:28;;;;;;;;;;;23.40;51.70;;;;;;5054337;28;19924;-74
2022/09/18 07:23:55;;;;;;;;;;;23.10;51.90;;;;;;5034318;28;19913;-73
2022/09/18 07:26:21;;;;;;;;;;;22.80;52.70;;;;;;5049104;28;19913;-71
2022/09/18 07:28:50;;;;;;;;;;;22.60;53.20;;;;;;5053197;28;20007;-76
2022/09/18 07:31:17;;;;;;;;;;;22.40;53.70;;;;;;5052999;28;20280;-73
2022/09/18 07:33:44;;;;;;;;;;;22.20;54.20;;;;;;5053341;28;19910;-74
2022/09/18 07:36:10;;;;;;;;;;;22.00;54.90;;;;;;5053135;28;19924;-73
2022/09/18 07:38:37;;;;;;;;;;;21.90;54.60;;;;;;5053076;28;20388;-75
2022/09/18 07:41:04;;;;;;;;;;;21.70;54.40;;;;;;5052233;28;19988;-74
2022/09/18 07:43:31;;;;;;;;;;;21.60;55.20;;;;;;5052787;28;19973;-74
2022/09/18 07:45:58;;;;;;;;;;;21.50;55.60;;;;;;5053248;28;19909;-77
2022/09/18 07:48:24;;;;;;;;;;;21.40;55.70;;;;;;5053630;28;20393;-74
2022/09/18 07:50:51;;;;;;;;;;;21.30;56.30;;;;;;5053387;28;19913;-74
2022/09/18 07:53:19;;;;;;;;;;;21.20;57.20;;;;;;5053003;28;19920;-75
2022/09/18 07:55:46;;;;;;;;;;;21.10;57.20;;;;;;5053095;28;20012;-75
2022/09/18 07:58:13;;;;;;;;;;;21.00;58.60;;;;;;5052908;28;20340;-74
2022/09/18 08:00:40;;;;;;;;;;;20.90;58.20;;;;;;5035068;28;20381;-76
2022/09/18 08:03:10;;;;;;;;;;;20.80;57.40;;;;;;5052348;28;19935;-74
2022/09/18 08:05:37;;;;;;;;;;;20.80;56.80;;;;;;5052508;28;19909;-73
2022/09/18 08:08:04;;;;;;;;;;;20.70;56.60;;;;;;5052784;28;19913;-74
2022/09/18 08:10:31;;;;;;;;;;;20.70;57.30;;;;;;5052223;28;20437;-75
2022/09/18 08:12:58;;;;;;;;;;;20.60;58.00;;;;;;5052261;28;19928;-77
2022/09/18 08:15:25;;;;;;;;;;;20.50;57.30;;;;;;5052777;28;20444;-76
2022/09/18 08:17:52;;;;;;;;;;;20.50;57.60;;;;;;5052596;28;19913;-73
2022/09/18 08:20:18;;;;;;;;;;;20.30;57.80;;;;;;5053035;28;19928;-73
2022/09/18 08:22:45;;;;;;;;;;;20.20;58.40;;;;;;5034473;28;19909;-76
2022/09/18 08:25:12;;;;;;;;;;;20.20;58.20;;;;;;5050742;28;20020;-73
2022/09/18 08:27:40;;;;;;;;;;;20.10;58.20;;;;;;5051829;28;19913;-72
2022/09/18 08:30:07;;;;;;;;;;;20.00;58.30;;;;;;5051883;28;20487;-74
2022/09/18 08:32:34;;;;;;;;;;;20.00;58.20;;;;;;5052249;28;19909;-72
2022/09/18 08:35:01;;;;;;;;;;;20.00;58.80;;;;;;5051413;28;20455;-72
2022/09/18 08:37:29;;;;;;;;;;;19.90;58.00;;;;;;5051612;28;20388;-73
2022/09/18 08:39:59;;;;;;;;;;;19.90;58.30;;;;;;5051989;28;19917;-73
2022/09/18 08:42:41;;;;;;;;;;;19.90;58.30;;;;;;5052085;28;19916;-73
2022/09/18 08:45:31;;;;;;;;;;;19.80;58.20;;;;;;5051748;28;19988;-72
2022/09/18 08:48:03;;;;;;;;;;;19.70;58.40;;;;;;5051930;28;19909;-76
2022/09/18 08:50:32;;;;;;;;;;;19.70;58.20;;;;;;5051814;28;20455;-79
2022/09/18 08:53:01;;;;;;;;;;;19.60;58.40;;;;;;5051335;28;19916;-76
2022/09/18 08:55:36;;;;;;;;;;;19.70;58.70;;;;;;5051940;28;19915;-73
2022/09/18 08:58:05;;;;;;;;;;;19.60;58.20;;;;;;5051638;28;19913;-73
2022/09/18 09:00:32;;;;;;;;;;;19.50;58.10;;;;;;5051606;28;19912;-74
2022/09/18 09:03:09;;;;;;;;;;;19.50;57.80;;;;;;5051680;28;19948;-77
2022/09/18 09:05:39;;;;;;;;;;;19.50;58.50;;;;;;5051846;28;19905;-74
2022/09/18 09:08:09;;;;;;;;;;;19.50;58.60;;;;;;5052017;28;19916;-72
2022/09/18 09:11:05;;;;;;;;;;;19.40;59.10;;;;;;5051555;28;19996;-73
2022/09/18 09:13:43;;;;;;;;;;;19.40;59.40;;;;;;5030760;28;19909;-72
2022/09/18 09:16:25;;;;;;;;;;;19.30;59.90;;;;;;5051620;28;20481;-73
2022/09/18 09:18:54;;;;;;;;;;;19.20;59.90;;;;;;5052035;28;19916;-73
2022/09/18 09:21:22;;;;;;;;;;;19.10;59.80;;;;;;5049470;28;19963;-73
2022/09/18 09:23:49;;;;;;;;;;;19.00;59.80;;;;;;5048544;28;20301;-73
2022/09/18 09:26:17;;;;;;;;;;;19.00;60.20;;;;;;5051827;28;19913;-78
2022/09/18 09:28:43;;;;;;;;;;;18.90;59.30;;;;;;5051242;28;19913;-77
2022/09/18 09:31:12;;;;;;;;;;;18.90;59.90;;;;;;5043127;28;19917;-73
2022/09/18 09:33:41;;;;;;;;;;;18.90;59.70;;;;;;5044670;28;19948;-71
2022/09/18 09:36:08;;;;;;;;;;;18.80;59.50;;;;;;5051373;28;20010;-73
2022/09/18 09:38:45;;;;;;;;;;;18.80;59.70;;;;;;5051539;28;19912;-76
2022/09/18 09:41:30;;;;;;;;;;;18.80;60.70;;;;;;5051565;28;19909;-73
2022/09/18 09:44:02;;;;;;;;;;;18.70;60.10;;;;;;5043398;28;19920;-76
2022/09/18 09:46:47;;;;;;;;;;;18.70;60.50;;;;;;5031565;28;20262;-78
2022/09/18 09:49:17;;;;;;;;;;;18.60;60.70;;;;;;5031391;28;20281;-77
2022/09/18 09:51:53;;;;;;;;;;;18.50;60.50;;;;;;5033711;28;19910;-73
2022/09/18 09:54:20;;;;;;;;;;;18.50;60.30;;;;;;5050689;28;19917;-72
2022/09/18 09:56:50;;;;;;;;;;;18.50;61.20;;;;;;5050375;28;19921;-73
2022/09/18 09:59:25;;;;;;;;;;;18.50;61.10;;;;;;5049791;28;20031;-73
2022/09/18 10:01:58;;;;;;;;;;;18.40;60.40;;;;;;5051063;28;19913;-74
2022/09/18 10:04:39;;;;;;;;;;;18.40;61.00;;;;;;5035694;28;19928;-72
2022/09/18 10:07:12;;;;;;;;;;;18.30;61.00;;;;;;5035451;28;20377;-72
2022/09/18 10:09:39;;;;;;;;;;;18.30;61.10;;;;;;5034751;28;19916;-71
2022/09/18 10:12:15;;;;;;;;;;;18.20;61.30;;;;;;5040241;28;19909;-73
2022/09/18 10:14:45;;;;;;;;;;;18.10;61.00;;;;;;5054539;28;19916;-71
2022/09/18 10:17:13;;;;;;;;;;;18.00;61.90;;;;;;5054016;28;19920;-71
2022/09/18 10:19:41;;;;;;;;;;;18.00;61.40;;;;;;5053944;28;19909;-72
2022/09/18 10:22:11;;;;;;;;;;;17.90;61.80;;;;;;5035947;28;19986;-72
2022/09/18 10:24:43;;;;;;;;;;;17.90;62.00;;;;;;5036155;28;19913;-76
2022/09/18 10:27:11;;;;;;;;;;;17.80;62.20;;;;;;5051600;28;20276;-76
2022/09/18 10:29:39;;;;;;;;;;;17.80;62.70;;;;;;5053766;28;19952;-74
2022/09/18 10:32:06;;;;;;;;;;;17.70;62.50;;;;;;5053498;28;20018;-74
2022/09/18 10:34:42;;;;;;;;;;;17.70;63.20;;;;;;5054503;28;20277;-78
2022/09/18 10:37:16;;;;;;;;;;;17.60;63.10;;;;;;5054790;28;19956;-78
2022/09/18 10:39:53;;;;;;;;;;;17.60;63.10;;;;;;5054312;28;19920;-77
2022/09/18 10:42:23;;;;;;;;;;;17.50;62.70;;;;;;5054470;28;20388;-77
2022/09/18 10:44:56;;;;;;;;;;;17.50;63.00;;;;;;5053719;28;19915;-79
2022/09/18 10:47:23;;;;;;;;;;;17.50;62.60;;;;;;5053299;28;19951;-77
2022/09/18 10:49:53;;;;;;;;;;;17.40;62.90;;;;;;5052423;28;20011;-78
2022/09/18 10:52:25;;;;;;;;;;;17.40;63.20;;;;;;5049389;28;20522;-77
2022/09/18 10:54:58;;;;;;;;;;;17.40;63.60;;;;;;5052950;28;20366;-75
2022/09/18 10:57:27;;;;;;;;;;;17.40;63.70;;;;;;5049844;28;19929;-76
2022/09/18 10:59:54;;;;;;;;;;;17.30;63.80;;;;;;5034591;28;19913;-79
2022/09/18 11:02:23;;;;;;;;;;;17.30;63.90;;;;;;5050158;28;19945;-77
2022/09/18 11:04:49;;;;;;;;;;;17.30;63.80;;;;;;5053020;28;19944;-76
2022/09/18 11:07:16;;;;;;;;;;;17.30;63.80;;;;;;5052834;28;19909;-72
2022/09/18 11:09:45;;;;;;;;;;;17.20;64.70;;;;;;5052373;28;19915;-77
2022/09/18 11:12:14;;;;;;;;;;;17.20;64.20;;;;;;5049652;28;19960;-75
2022/09/18 11:14:44;;;;;;;;;;;17.20;64.70;;;;;;5051239;28;19959;-78
2022/09/18 11:17:20;;;;;;;;;;;17.20;65.10;;;;;;5050426;28;19928;-78
2022/09/18 11:19:51;;;;;;;;;;;17.20;65.60;;;;;;5049999;28;19971;-78
2022/09/18 11:22:32;;;;;;;;;;;17.10;65.10;;;;;;5049971;28;19949;-77
2022/09/18 11:25:14;;;;;;;;;;;17.00;65.10;;;;;;5051693;28;20023;-78
2022/09/18 11:27:51;;;;;;;;;;;17.00;65.80;;;;;;5049076;28;20373;-77
2022/09/18 11:30:22;;;;;;;;;;;17.00;66.60;;;;;;5051666;28;19920;-77
2022/09/18 11:32:52;;;;;;;;;;;17.00;66.10;;;;;;5049611;28;19909;-79
2022/09/18 11:35:20;;;;;;;;;;;16.90;66.60;;;;;;5052089;28;19978;-79
2022/09/18 11:37:51;;;;;;;;;;;16.80;66.50;;;;;;5049431;28;20026;-75
2022/09/18 11:40:21;;;;;;;;;;;16.80;66.50;;;;;;5052768;28;19920;-75
2022/09/18 11:42:49;;;;;;;;;;;16.70;66.90;;;;;;5052874;28;19916;-80
2022/09/18 11:45:41;;;;;;;;;;;16.80;67.10;;;;;;5052797;28;19917;-77
2022/09/18 11:48:19;;;;;;;;;;;16.80;67.30;;;;;;5052562;28;19921;-75
2022/09/18 11:50:47;;;;;;;;;;;16.70;67.90;;;;;;5051860;28;19955;-77
2022/09/18 11:53:23;;;;;;;;;;;16.70;68.20;;;;;;5052131;28;19920;-78
2022/09/18 11:55:52;;;;;;;;;;;16.70;68.30;;;;;;5052536;28;20003;-78
2022/09/18 11:58:44;;;;;;;;;;;16.60;68.70;;;;;;5052844;28;20389;-77
2022/09/18 12:01:29;;;;;;;;;;;16.60;68.70;;;;;;5048481;28;19916;-77
2022/09/18 12:04:16;;;;;;;;;;;16.50;69.00;;;;;;5052649;28;19912;-77
2022/09/18 12:06:52;;;;;;;;;;;16.50;69.30;;;;;;5051928;28;19966;-77
2022/09/18 12:09:32;;;;;;;;;;;16.50;69.70;;;;;;5052162;28;19941;-77
2022/09/18 12:12:02;;;;;;;;;;;16.50;70.00;;;;;;5052537;28;19912;-77
2022/09/18 12:14:50;;;;;;;;;;;16.50;70.20;;;;;;5052279;28;19919;-77
2022/09/18 12:17:23;;;;;;;;;;;16.50;70.70;;;;;;5052232;28;19963;-77
2022/09/18 12:19:52;;;;;;;;;;;16.50;70.60;;;;;;5052388;28;19912;-78
2022/09/18 12:22:20;;;;;;;;;;;16.50;70.90;;;;;;5052294;28;20411;-78
2022/09/18 12:24:47;;;;;;;;;;;16.50;71.30;;;;;;5051995;28;20304;-76
2022/09/18 12:27:23;;;;;;;;;;;16.40;71.50;;;;;;5052384;28;19908;-79
2022/09/18 12:30:07;;;;;;;;;;;16.50;72.00;;;;;;5051700;28;19996;-75
2022/09/18 12:32:52;;;;;;;;;;;16.50;72.40;;;;;;5052265;28;19916;-76
2022/09/18 12:35:36;;;;;;;;;;;16.40;72.90;;;;;;5051834;28;19978;-77
2022/09/18 12:38:03;;;;;;;;;;;16.40;72.60;;;;;;5051993;28;19948;-74
2022/09/18 12:40:36;;;;;;;;;;;16.40;72.80;;;;;;5051974;28;19909;-73
2022/09/18 12:43:06;;;;;;;;;;;16.30;73.40;;;;;;5051253;28;19912;-75
2022/09/18 12:45:50;;;;;;;;;;;16.30;73.70;;;;;;5051620;28;19909;-73
2022/09/18 12:48:26;;;;;;;;;;;16.30;74.20;;;;;;5051596;28;19916;-77
2022/09/18 12:51:14;;;;;;;;;;;16.30;74.20;;;;;;5051016;28;19959;-75
2022/09/18 12:53:56;;;;;;;;;;;16.20;75.20;;;;;;5051055;28;19913;-74
2022/09/18 12:56:32;;;;;;;;;;;16.10;76.10;;;;;;5051726;28;20373;-76
2022/09/18 12:59:07;;;;;;;;;;;16.10;75.70;;;;;;5052012;28;20685;-75
2022/09/18 13:01:48;;;;;;;;;;;16.10;76.20;;;;;;5051952;28;19908;-77
2022/09/18 13:04:38;;;;;;;;;;;16.20;77.10;;;;;;5052151;28;19912;-78
2022/09/18 13:07:12;;;;;;;;;;;15.90;77.10;;;;;;5051583;28;20000;-75
2022/09/18 13:09:50;;;;;;;;;;;15.80;77.20;;;;;;5051871;28;20007;-76
2022/09/18 13:12:24;;;;;;;;;;;15.70;78.00;;;;;;5051756;28;19962;-77
2022/09/18 13:14:53;;;;;;;;;;;15.70;78.30;;;;;;5051071;28;19913;-76
2022/09/18 13:17:33;;;;;;;;;;;15.70;78.90;;;;;;5051074;28;19986;-76
2022/09/18 13:20:06;;;;;;;;;;;15.60;78.80;;;;;;5051347;28;19943;-75
2022/09/18 13:22:37;;;;;;;;;;;15.60;79.30;;;;;;5051319;28;19913;-79
2022/09/18 13:25:06;;;;;;;;;;;15.60;80.10;;;;;;5051887;28;19916;-78
2022/09/18 13:27:33;;;;;;;;;;;15.50;80.20;;;;;;5050193;28;19913;-76
2022/09/18 13:30:12;;;;;;;;;;;15.50;80.50;;;;;;5051558;28;19916;-77
2022/09/18 13:32:40;;;;;;;;;;;15.40;81.00;;;;;;5051528;28;19967;-78
2022/09/18 13:35:06;;;;;;;;;;;15.40;81.00;;;;;;5051529;28;19984;-78
2022/09/18 13:37:33;;;;;;;;;;;15.30;81.20;;;;;;5051277;28;19999;-78
2022/09/18 13:40:01;;;;;;;;;;;15.20;81.70;;;;;;5054949;28;19913;-77
2022/09/18 13:42:29;;;;;;;;;;;15.30;82.40;;;;;;5055414;28;20269;-71
2022/09/18 13:44:57;;;;;;;;;;;15.30;81.90;;;;;;5055475;28;20440;-77
2022/09/18 13:47:24;;;;;;;;;;;15.20;81.90;;;;;;5055215;28;19953;-78
2022/09/18 13:49:50;;;;;;;;;;;15.20;81.90;;;;;;5055618;28;20000;-78
2022/09/18 13:52:32;;;;;;;;;;;15.20;81.90;;;;;;5055129;28;19916;-76
2022/09/18 13:55:18;;;;;;;;;;;15.10;81.80;;;;;;5054781;28;20725;-77
2022/09/18 13:57:45;;;;;;;;;;;15.10;82.50;;;;;;5054766;28;19917;-78
2022/09/18 14:00:21;;;;;;;;;;;15.10;82.40;;;;;;5055107;28;19961;-77
2022/09/18 14:02:48;;;;;;;;;;;15.00;81.70;;;;;;5054752;28;19940;-77
2022/09/18 14:05:29;;;;;;;;;;;15.00;81.80;;;;;;5055113;28;19916;-78
2022/09/18 14:08:03;;;;;;;;;;;15.00;81.50;;;;;;5055372;28;19959;-78
2022/09/18 14:10:32;;;;;;;;;;;15.00;81.50;;;;;;5055188;28;19909;-77
2022/09/18 14:13:21;;;;;;;;;;;15.00;81.20;;;;;;5054747;28;19912;-78
2022/09/18 14:16:04;;;;;;;;;;;15.00;80.80;;;;;;5009042;28;19944;-78
2022/09/18 14:18:37;;;;;;;;;;;15.00;80.90;;;;;;5054537;28;20019;-72
2022/09/18 14:21:16;;;;;;;;;;;15.00;81.60;;;;;;5055502;28;20377;-71
2022/09/18 14:23:45;;;;;;;;;;;15.00;81.00;;;;;;5054495;28;19956;-77
2022/09/18 14:26:31;;;;;;;;;;;15.10;81.10;;;;;;5054806;28;20395;-72
2022/09/18 14:29:00;;;;;;;;;;;15.20;81.00;;;;;;5054589;28;19939;-78
2022/09/18 14:31:28;;;;;;;;;;;15.20;81.40;;;;;;5053932;28;19919;-76
2022/09/18 14:34:14;;;;;;;;;;;15.20;81.30;;;;;;5054183;28;19915;-75
2022/09/18 14:36:45;;;;;;;;;;;15.20;81.20;;;;;;5053162;28;20341;-77